Airfield :







YOU CAN JOIN US ON...

 
LOGIN :

Register | Disclaimer

   EN    FR    IT 

 









Legend :    VFR   Marginal VFR   IFR   Intensive IFR   Very Intensive IFR
Visi :
Ceiling :
>= 8 km
>= 3000ft
5 to 8 km
1000 to 3000 ft
1500m to 5 km
500 to 1000 ft
800 to 1500m
200 to 500 ft
< 800m
< 200 ft
Symbols :   Thunderstorms  Fog  Heavy snow  Heavy precipitations  Wind > 20 kt






- Airport Elevation : 1709 ft
- IATA code : YKL


CYKL - Schefferville

CURRENT METAR :
  • 291100Z AUTO 35016G24KT 9SM -SN OVC019 M18/M21 A2985 RMK SLP166

EXPIRED METARs :
  • 291048Z AUTO 34013G22KT 9SM OVC019 M18/M21 A2984 RMK SLP164
  • 291024Z AUTO 34014G22KT 9SM -SN OVC019 M18/M21 A2983 RMK SLP160
  • 291000Z AUTO 35013G19KT 9SM OVC019 M18/M21 A2982 RMK SLP157
  • 290900Z AUTO 34010G16KT 9SM OVC021 M18/M21 A2980 RMK SLP149

TAF TAF CYKL
Valid from the 29 at 08:00 until the 29 at 20:00 UTC


290738Z 2908/2920 35015KT 6SM -SN OVC025
TEMPO 2908/2910 2SM -SN OVC015
FM291000 32015KT 3SM -SN OVC020
TEMPO 2910/2918 P6SM NSW OVC025
FM291800 32012KT P6SM FEW030 SCT120 RMK FCST BASED ON AUTO OBS. NXT FCST BY 291400Z



MET'MAP, your aeronautical weather chart ! - Copyright ORBIFLY December 2007 - Disclaimer

ORBIFLY MET'MAP TEAM :

Programming & Development : Alexandra Zaïnal
Concept & original design : Baudouin d'Aumeries
Assistance for programming : Marc-Olivier Méhu
Technical & hardware support : Manuel Goepfert

Contact : metmap@orbifly.com




SOURCES & CREDITS :

   NOAA